Terminal Aerodrome Forecast
Issued by NWS Portland, OR

Home | Current Version | Previous Version | Text Only | Print | Product List | Glossary On
Versions: 1 2 3 4 5 6 7 8 9 10 11 12 13 14 15 16 17 18 19 20 21 22 23 24 25 26
000
FTUS46 KPQR 232107 AAB
TAFPDX
TAF AMD
KPDX 232107Z 2321/2418 19012KT P6SM -RA SCT025 OVC050
     FM240000 18012KT P6SM -RA SCT015 BKN025 OVC045
     FM240600 19014G24KT 4SM RA BR BKN020 OVC035
     FM241400 22013G22KT P6SM -SHRA BKN025 BKN045=

USA.gov is the U.S. government's official web portal to all federal, state and local government web resources and services.